Sebastian, FL

8:53 PM EDT on July 26, 2017 (GMT -0400)
East Tulip | | Change Station

Elev 20 ft 27.78 °N, 80.48 °W | Updated 18 seconds ago

Partly Cloudy
Partly Cloudy
82.8 °F
Feels Like 88 °F
N
2.0
Wind Variable Wind from South

Today
High -- | Low -- °F
--% Chance of Precip.
Yesterday
High -- | Low -- °F
Precip. -- in
Pressure 30.04 in
Visibility 10.0 miles
Clouds Clear
Heat Index 88 °F
Dew Point 72 °F
Humidity 71%
Rainfall 0.00 in
Snow Depth Not available.
6:41 AM 8:14 PM
Waxing Crescent, 16% visible
METAR KVRB 262353Z 13010KT 10SM CLR 29/24 A3004 RMK AO2 SLP170 T02940244 10339 20294 53001
Pressure 30.04 in
Visibility 10.0 miles
Clouds Clear
Heat Index 88 °F
Dew Point 72 °F
Humidity 71%
Rainfall 0.00 in
Snow Depth Not available.
6:41 AM 8:14 PM
Waxing Crescent, 16% visible
METAR KVRB 262353Z 13010KT 10SM CLR 29/24 A3004 RMK AO2 SLP170 T02940244 10339 20294 53001

Get Severe Weather Alerts

Thanks for signing up!

Be on the lookout for a verification email in your inbox.

You'll start receiving the daily forecast at 6 AM.

×

10-Day Weather Forecast

Almanac

Astronomy

Jul. 26, 2017 Rise Set
Actual Time
Civil Twilight
Nautical Twilight
Astronomical Twilight
Moon
Length of Visible Light
Length of Day
Tomorrow will be .
, % of the Moon is Illuminated

Today's Extremes

State Highs State Lows

Community

WunderPhotos

Category 6

Welcome to Category 6. This is the collective home for Weather Underground's featured writeups by Dr. Jeff Masters (right), Bob Henson (left), Chris Burt, and other regular contributors.

Nearby

Air Quality

  Air Quality AQ Index Pollutant
Not available.

Snow Depth

Station Depth Elevation

Earthquake Activity

City Distance Mag. Time & Date
Minimum magnitude displayed is 2.5.

Coastal Water Temperatures

Place Temperature

Stations

Nearby Weather Stations

Station Location Temp. Windchill Dew Point Humidity Wind Precip. Elev Updated Type
                   

Watches & Warnings

There are currently no watches in effect.